Time;durP1;ratioP1;P1;durP2;ratioP2;P2;SDS_P1;SDS_P2;PMS_P1;PMS_P2;Temp;Humidity;BMP_temperature;BMP_pressure;BME280_temperature;BME280_humidity;BME280_pressure;Samples;Min_cycle;Max_cycle;Signal;HPM_P1;HPM_P2
2022/05/26 00:00:38;;;;;;;;;;;;;;;18.60;63.88;101366.25;1048487;28;1795;-65
2022/05/26 00:01:28;;;;;;;;;;;;;;;18.59;64.53;101359.13;1050643;28;672;-64
2022/05/26 00:02:19;;;;;;;;;;;;;;;18.59;63.99;101364.53;1049807;28;641;-65
2022/05/26 00:03:09;;;;;;;;;;;;;;;18.60;63.66;101368.94;1049045;28;1540;-64
2022/05/26 00:04:00;;;;;;;;;;;;;;;18.61;63.25;101372.50;1050327;28;626;-64
2022/05/26 00:04:50;;;;;;;;;;;;;;;18.61;63.72;101367.09;1050470;28;744;-65
2022/05/26 00:05:41;;;;;;;;;;;;;;;18.59;64.42;101364.53;1050474;28;661;-65
2022/05/26 00:06:31;;;;;;;;;;;;;;;18.60;63.87;101373.47;1050478;28;715;-65
2022/05/26 00:07:21;;;;;;;;;;;;;;;18.60;63.50;101370.78;1050525;28;700;-64
2022/05/26 00:08:12;;;;;;;;;;;;;;;18.60;63.60;101376.19;1050368;28;603;-64
2022/05/26 00:09:02;;;;;;;;;;;;;;;18.58;63.81;101364.63;1049630;28;665;-65
2022/05/26 00:09:53;;;;;;;;;;;;;;;18.59;64.19;101371.78;1048043;28;1676;-65
2022/05/26 00:10:43;;;;;;;;;;;;;;;18.58;64.29;101373.59;1045678;28;736;-64
2022/05/26 00:11:33;;;;;;;;;;;;;;;18.58;63.75;101372.72;1045100;28;1537;-63
2022/05/26 00:12:24;;;;;;;;;;;;;;;18.58;63.74;101375.44;1044394;28;626;-64
2022/05/26 00:13:14;;;;;;;;;;;;;;;18.58;64.01;101381.69;1045736;28;677;-65
2022/05/26 00:14:07;;;;;;;;;;;;;;;18.59;63.75;101377.19;1045024;28;638;-65
2022/05/26 00:14:58;;;;;;;;;;;;;;;18.58;63.57;101381.69;1045628;28;1700;-65
2022/05/26 00:15:48;;;;;;;;;;;;;;;18.58;64.42;101378.13;1044477;28;634;-64
2022/05/26 00:16:39;;;;;;;;;;;;;;;18.58;64.01;101375.44;1045025;28;630;-64
2022/05/26 00:17:29;;;;;;;;;;;;;;;18.58;63.60;101386.22;1043957;28;646;-64
2022/05/26 00:18:20;;;;;;;;;;;;;;;18.58;63.95;101383.53;1044965;28;615;-64
2022/05/26 00:19:10;;;;;;;;;;;;;;;18.57;63.98;101381.81;1046131;28;713;-64
2022/05/26 00:20:01;;;;;;;;;;;;;;;18.57;63.80;101376.41;1044204;28;694;-64
2022/05/26 00:20:51;;;;;;;;;;;;;;;18.57;63.67;101379.13;1048454;28;1687;-64
2022/05/26 00:21:42;;;;;;;;;;;;;;;18.56;63.88;101377.41;1050105;28;617;-64
2022/05/26 00:22:32;;;;;;;;;;;;;;;18.54;64.02;101380.25;1046480;28;660;-63
2022/05/26 00:23:22;;;;;;;;;;;;;;;18.54;63.50;101382.94;1047649;28;1657;-64
2022/05/26 00:24:13;;;;;;;;;;;;;;;18.56;63.57;101380.09;1050958;28;775;-64
2022/05/26 00:25:03;;;;;;;;;;;;;;;18.54;63.67;101385.66;1050773;28;606;-64
2022/05/26 00:25:54;;;;;;;;;;;;;;;18.54;64.20;101380.25;1048754;28;1692;-64
2022/05/26 00:26:44;;;;;;;;;;;;;;;18.52;64.26;101376.81;1049408;28;1528;-64
2022/05/26 00:27:35;;;;;;;;;;;;;;;18.54;63.88;101384.78;1049624;28;700;-64
2022/05/26 00:28:25;;;;;;;;;;;;;;;18.54;63.72;101377.53;1048151;28;1683;-64
2022/05/26 00:29:16;;;;;;;;;;;;;;;18.53;63.59;101378.53;1050515;28;672;-63
2022/05/26 00:30:06;;;;;;;;;;;;;;;18.53;63.75;101383.94;1047439;28;1660;-63
2022/05/26 00:30:57;;;;;;;;;;;;;;;18.52;63.78;101384.06;1044295;28;658;-64
2022/05/26 00:31:47;;;;;;;;;;;;;;;18.53;64.18;101381.22;1044474;28;1688;-65
2022/05/26 00:32:38;;;;;;;;;;;;;;;18.53;64.11;101374.97;1044393;28;657;-64
2022/05/26 00:33:28;;;;;;;;;;;;;;;18.53;64.04;101381.22;1044978;28;626;-65
2022/05/26 00:34:19;;;;;;;;;;;;;;;18.51;63.42;101382.34;1045554;28;1727;-63
2022/05/26 00:35:09;;;;;;;;;;;;;;;18.53;64.00;101374.97;1044703;28;670;-63
2022/05/26 00:35:59;;;;;;;;;;;;;;;18.52;63.64;101378.66;1044120;28;619;-63
2022/05/26 00:36:50;;;;;;;;;;;;;;;18.51;63.46;101377.81;1045618;28;688;-64
2022/05/26 00:37:40;;;;;;;;;;;;;;;18.51;63.71;101377.81;1044443;28;761;-64
2022/05/26 00:38:31;;;;;;;;;;;;;;;18.51;64.43;101374.25;1043605;28;662;-64
2022/05/26 00:39:24;;;;;;;;;;;;;;;18.50;63.79;101383.34;1046528;28;664;-64
2022/05/26 00:40:14;;;;;;;;;;;;;;;18.50;64.23;101370.72;1045933;28;634;-64
2022/05/26 00:41:05;;;;;;;;;;;;;;;18.51;64.06;101376.97;1045502;28;1628;-64
2022/05/26 00:41:55;;;;;;;;;;;;;;;18.51;64.57;101385.06;1045456;28;692;-64
2022/05/26 00:42:46;;;;;;;;;;;;;;;18.50;63.57;101376.09;1045026;28;661;-64
2022/05/26 00:43:36;;;;;;;;;;;;;;;18.50;63.78;101375.25;1045087;28;689;-64
2022/05/26 00:44:27;;;;;;;;;;;;;;;18.50;64.43;101386.03;1040935;28;661;-64
2022/05/26 00:45:17;;;;;;;;;;;;;;;18.50;63.95;101386.03;1047188;28;1620;-64
2022/05/26 00:46:07;;;;;;;;;;;;;;;18.49;63.44;101382.50;1052720;28;657;-64
2022/05/26 00:46:58;;;;;;;;;;;;;;;18.50;63.59;101391.44;1053317;28;641;-64
2022/05/26 00:47:48;;;;;;;;;;;;;;;18.49;63.97;101389.75;1053320;28;1906;-65
2022/05/26 00:48:39;;;;;;;;;;;;;;;18.49;63.79;101389.75;1055763;28;1258;-63
2022/05/26 00:49:29;;;;;;;;;;;;;;;18.48;63.92;101390.72;1050377;28;1563;-64
2022/05/26 00:50:19;;;;;;;;;;;;;;;18.47;63.62;101386.31;1049505;28;739;-64
2022/05/26 00:51:10;;;;;;;;;;;;;;;18.49;64.16;101373.53;1056399;28;626;-64
2022/05/26 00:52:00;;;;;;;;;;;;;;;18.49;63.87;101382.50;1056447;28;704;-65
2022/05/26 00:52:51;;;;;;;;;;;;;;;18.49;63.84;101373.53;1049212;28;669;-65
2022/05/26 00:53:42;;;;;;;;;;;;;;;18.48;63.63;101388.03;1049220;28;661;-64
2022/05/26 00:54:33;;;;;;;;;;;;;;;18.48;63.82;101390.72;1052003;28;690;-66
2022/05/26 00:55:23;;;;;;;;;;;;;;;18.46;64.27;101390.00;1052225;28;724;-66
2022/05/26 00:56:13;;;;;;;;;;;;;;;18.44;64.03;101387.47;1051868;28;625;-63
2022/05/26 00:57:04;;;;;;;;;;;;;;;18.45;63.62;101385.63;1052065;28;622;-64
2022/05/26 00:57:54;;;;;;;;;;;;;;;18.45;63.73;101388.31;1051693;28;674;-64
2022/05/26 00:58:45;;;;;;;;;;;;;;;18.43;64.28;101391.16;1052022;28;637;-63
2022/05/26 00:59:36;;;;;;;;;;;;;;;18.44;64.32;101392.88;1052346;28;720;-64
2022/05/26 01:00:26;;;;;;;;;;;;;;;18.44;63.65;101390.16;1053490;28;1730;-64
2022/05/26 01:01:17;;;;;;;;;;;;;;;18.46;64.25;101396.25;1051842;28;637;-63
2022/05/26 01:02:07;;;;;;;;;;;;;;;18.44;63.52;101398.28;1052017;28;1631;-63
2022/05/26 01:02:57;;;;;;;;;;;;;;;18.44;63.92;101386.63;1053937;28;1590;-63
2022/05/26 01:03:48;;;;;;;;;;;;;;;18.44;63.63;101397.41;1055990;28;1570;-63
2022/05/26 01:04:39;;;;;;;;;;;;;;;18.44;63.94;101395.56;1054212;28;1594;-63
2022/05/26 01:05:30;;;;;;;;;;;;;;;18.44;63.49;101392.88;1052318;28;1765;-62
2022/05/26 01:06:20;;;;;;;;;;;;;;;18.44;63.96;101398.28;1052213;28;680;-62
2022/05/26 01:07:11;;;;;;;;;;;;;;;18.44;63.83;101394.72;1051949;28;721;-63
2022/05/26 01:08:01;;;;;;;;;;;;;;;18.46;63.91;101400.81;1051536;28;1951;-63
2022/05/26 01:08:52;;;;;;;;;;;;;;;18.46;64.18;101400.81;1051440;28;694;-63
2022/05/26 01:09:42;;;;;;;;;;;;;;;18.46;64.13;101401.66;1052172;28;681;-63
2022/05/26 01:10:32;;;;;;;;;;;;;;;18.46;63.47;101400.81;1052427;28;1698;-63
2022/05/26 01:11:23;;;;;;;;;;;;;;;18.44;64.16;101400.13;1052037;28;658;-63
2022/05/26 01:12:13;;;;;;;;;;;;;;;18.44;63.86;101397.41;1053376;28;1643;-63
2022/05/26 01:13:04;;;;;;;;;;;;;;;18.40;63.53;101394.13;1053090;28;1545;-63
2022/05/26 01:13:55;;;;;;;;;;;;;;;18.40;63.91;101402.22;1052191;28;680;-64
2022/05/26 01:14:45;;;;;;;;;;;;;;;18.41;64.55;101406.63;1052745;28;559;-64
2022/05/26 01:15:36;;;;;;;;;;;;;;;18.41;63.56;101409.34;1056405;28;1572;-64
2022/05/26 01:16:26;;;;;;;;;;;;;;;18.42;64.28;101412.88;1056600;28;708;-64
2022/05/26 01:17:17;;;;;;;;;;;;;;;18.41;63.86;101413.88;1052618;28;637;-64
2022/05/26 01:18:07;;;;;;;;;;;;;;;18.41;63.67;101412.03;1054639;28;1780;-64
2022/05/26 01:18:57;;;;;;;;;;;;;;;18.41;63.89;101413.88;1055911;28;665;-64
2022/05/26 01:19:49;;;;;;;;;;;;;;;18.42;63.39;101407.50;1056180;28;661;-64
2022/05/26 01:20:39;;;;;;;;;;;;;;;18.42;63.90;101412.88;1057398;28;605;-64
2022/05/26 01:21:30;;;;;;;;;;;;;;;18.41;64.41;101412.03;1056242;28;689;-64
2022/05/26 01:22:21;;;;;;;;;;;;;;;18.42;63.52;101407.50;1060317;27;711;-64
2022/05/26 01:23:11;;;;;;;;;;;;;;;18.43;64.35;101417.28;1060633;27;649;-63
2022/05/26 01:24:01;;;;;;;;;;;;;;;18.42;63.44;101404.78;1057038;28;629;-64
2022/05/26 01:24:52;;;;;;;;;;;;;;;18.41;63.89;101416.56;1060117;27;621;-63
2022/05/26 01:25:42;;;;;;;;;;;;;;;18.42;64.20;101413.75;1056906;28;1659;-63
2022/05/26 01:26:33;;;;;;;;;;;;;;;18.42;64.50;101420.97;1052257;28;653;-63
2022/05/26 01:27:23;;;;;;;;;;;;;;;18.41;63.42;101420.13;1057169;28;621;-63
2022/05/26 01:28:14;;;;;;;;;;;;;;;18.39;63.61;101420.25;1056137;28;1943;-63
2022/05/26 01:29:04;;;;;;;;;;;;;;;18.43;63.56;101417.28;1054598;28;1725;-63
2022/05/26 01:29:55;;;;;;;;;;;;;;;18.42;64.07;101418.28;1052505;28;1671;-62
2022/05/26 01:30:45;;;;;;;;;;;;;;;18.42;64.29;101415.59;1052065;28;1647;-63
2022/05/26 01:31:36;;;;;;;;;;;;;;;18.41;63.56;101419.28;1051705;28;705;-63
2022/05/26 01:32:27;;;;;;;;;;;;;;;18.41;64.17;101421.97;1053060;28;725;-63
2022/05/26 01:33:17;;;;;;;;;;;;;;;18.42;64.41;101415.59;1051917;28;800;-63
2022/05/26 01:34:10;;;;;;;;;;;;;;;18.40;63.70;101418.41;1052171;28;524;-64
2022/05/26 01:35:01;;;;;;;;;;;;;;;18.41;63.34;101420.13;1056889;27;1748;-63
2022/05/26 01:35:51;;;;;;;;;;;;;;;18.41;63.66;101425.53;1056484;28;1685;-63
2022/05/26 01:36:42;;;;;;;;;;;;;;;18.38;64.29;101421.25;1052559;28;721;-63
2022/05/26 01:37:32;;;;;;;;;;;;;;;18.38;64.48;101420.38;1051906;28;625;-63
2022/05/26 01:38:22;;;;;;;;;;;;;;;18.38;64.32;101415.84;1052180;28;650;-65
2022/05/26 01:39:13;;;;;;;;;;;;;;;18.38;64.07;101421.25;1052440;28;681;-63
2022/05/26 01:40:03;;;;;;;;;;;;;;;18.39;63.97;101416.72;1051807;28;713;-64
2022/05/26 01:40:55;;;;;;;;;;;;;;;18.38;63.33;101421.25;1054488;28;1797;-63
2022/05/26 01:41:45;;;;;;;;;;;;;;;18.37;64.17;101421.38;1054586;28;1550;-63
2022/05/26 01:42:36;;;;;;;;;;;;;;;18.36;63.79;101428.63;1054549;28;1488;-63
2022/05/26 01:43:26;;;;;;;;;;;;;;;18.37;64.14;101435.72;1060130;27;720;-62
2022/05/26 01:44:17;;;;;;;;;;;;;;;18.37;63.86;101424.09;1060561;27;715;-63
2022/05/26 01:45:07;;;;;;;;;;;;;;;18.37;63.54;101430.34;1054516;28;1547;-64
2022/05/26 01:45:57;;;;;;;;;;;;;;;18.35;63.94;101432.31;1052120;28;1743;-64
2022/05/26 01:46:50;;;;;;;;;;;;;;;18.34;64.05;101430.59;1051891;28;1635;-63
2022/05/26 01:47:40;;;;;;;;;;;;;;;18.35;63.87;101432.31;1052208;28;1818;-62
2022/05/26 01:48:31;;;;;;;;;;;;;;;18.35;63.86;101431.44;1053263;28;1250;-63
2022/05/26 01:49:21;;;;;;;;;;;;;;;18.36;63.73;101430.47;1061509;27;720;-63
2022/05/26 01:50:11;;;;;;;;;;;;;;;18.35;64.20;101436.84;1052610;28;790;-63
2022/05/26 01:51:02;;;;;;;;;;;;;;;18.35;64.10;101431.44;1052116;28;1665;-63
2022/05/26 01:51:53;;;;;;;;;;;;;;;18.36;64.05;101431.31;1056288;28;649;-63
2022/05/26 01:52:43;;;;;;;;;;;;;;;18.33;63.76;101439.69;1052861;28;700;-62
2022/05/26 01:53:34;;;;;;;;;;;;;;;18.33;63.88;101431.59;1048183;28;634;-63
2022/05/26 01:54:24;;;;;;;;;;;;;;;18.33;63.95;101439.69;1052256;28;1798;-62
2022/05/26 01:55:14;;;;;;;;;;;;;;;18.32;63.80;101435.28;1052555;28;633;-63
2022/05/26 01:56:05;;;;;;;;;;;;;;;18.32;63.81;101431.72;1053841;28;598;-63
2022/05/26 01:56:55;;;;;;;;;;;;;;;18.32;63.97;101435.28;1052011;28;607;-63
2022/05/26 01:57:46;;;;;;;;;;;;;;;18.33;63.60;101442.38;1051663;28;665;-63
2022/05/26 01:58:36;;;;;;;;;;;;;;;18.33;64.15;101441.53;1052472;28;1059;-63
2022/05/26 01:59:27;;;;;;;;;;;;;;;18.32;63.93;101437.13;1053090;28;1488;-63
2022/05/26 02:00:18;;;;;;;;;;;;;;;18.31;64.10;101433.56;1054970;28;1688;-63
2022/05/26 02:01:08;;;;;;;;;;;;;;;18.32;64.52;101437.97;1056075;28;645;-63
2022/05/26 02:01:58;;;;;;;;;;;;;;;18.32;64.53;101435.28;1056197;28;703;-63
2022/05/26 02:02:49;;;;;;;;;;;;;;;18.31;63.77;101438.97;1055957;28;674;-63
2022/05/26 02:03:39;;;;;;;;;;;;;;;18.32;64.33;101434.41;1057368;28;656;-63
2022/05/26 02:04:30;;;;;;;;;;;;;;;18.31;63.67;101436.25;1055893;28;685;-63
2022/05/26 02:05:20;;;;;;;;;;;;;;;18.31;64.14;101430.88;1056112;28;661;-64
2022/05/26 02:06:11;;;;;;;;;;;;;;;18.31;64.27;101435.41;1055947;28;863;-63
2022/05/26 02:07:01;;;;;;;;;;;;;;;18.31;63.88;101438.97;1056046;28;677;-63
2022/05/26 02:07:51;;;;;;;;;;;;;;;18.31;63.52;101435.41;1056136;28;1898;-63
2022/05/26 02:08:42;;;;;;;;;;;;;;;18.31;63.56;101436.25;1055856;28;602;-63
2022/05/26 02:09:34;;;;;;;;;;;;;;;18.31;64.39;101435.41;1055986;28;637;-61
2022/05/26 02:10:25;;;;;;;;;;;;;;;18.31;63.99;101443.50;1055660;28;653;-62
2022/05/26 02:11:15;;;;;;;;;;;;;;;18.30;63.88;101445.34;1055611;28;606;-63
2022/05/26 02:12:06;;;;;;;;;;;;;;;18.30;64.21;101439.09;1055885;28;728;-63
2022/05/26 02:12:56;;;;;;;;;;;;;;;18.29;63.71;101445.47;1056235;28;637;-63
2022/05/26 02:13:47;;;;;;;;;;;;;;;18.29;64.00;101442.78;1056069;28;626;-64
2022/05/26 02:14:37;;;;;;;;;;;;;;;18.29;64.41;101438.22;1056201;28;697;-64
2022/05/26 02:15:28;;;;;;;;;;;;;;;18.28;64.35;101444.63;1055891;28;634;-63
2022/05/26 02:16:18;;;;;;;;;;;;;;;18.28;64.08;101439.22;1056132;28;665;-63
2022/05/26 02:17:09;;;;;;;;;;;;;;;18.27;64.00;101448.31;1055595;28;1611;-64
2022/05/26 02:17:59;;;;;;;;;;;;;;;18.27;63.96;101444.78;1056055;28;619;-64
2022/05/26 02:18:49;;;;;;;;;;;;;;;18.28;64.40;101441.91;1056173;28;748;-64
2022/05/26 02:19:40;;;;;;;;;;;;;;;18.28;63.67;101449.16;1056016;28;630;-63
2022/05/26 02:20:30;;;;;;;;;;;;;;;18.27;64.35;101451.00;1055842;28;1738;-64
2022/05/26 02:21:21;;;;;;;;;;;;;;;18.26;63.77;101449.31;1055775;28;678;-63
2022/05/26 02:22:11;;;;;;;;;;;;;;;18.26;63.86;101449.31;1056064;28;681;-64
2022/05/26 02:23:01;;;;;;;;;;;;;;;18.26;63.82;101449.31;1056183;28;653;-64
2022/05/26 02:23:52;;;;;;;;;;;;;;;18.26;63.45;101456.56;1057749;28;700;-63
2022/05/26 02:24:42;;;;;;;;;;;;;;;18.26;64.02;101454.72;1055659;28;795;-63
2022/05/26 02:25:33;;;;;;;;;;;;;;;18.27;63.88;101451.00;1054744;28;1693;-64
2022/05/26 02:26:23;;;;;;;;;;;;;;;18.26;64.37;101457.41;1052376;28;634;-64
2022/05/26 02:27:13;;;;;;;;;;;;;;;18.26;64.65;101456.56;1054198;28;1726;-63
2022/05/26 02:28:05;;;;;;;;;;;;;;;18.25;63.66;101455.72;1056150;28;1945;-63
2022/05/26 02:30:04;;;;;;;;;;;;;;;18.25;64.28;101455.72;1052469;28;636;-64
2022/05/26 02:30:55;;;;;;;;;;;;;;;18.25;64.37;101457.56;1051640;28;613;-64
2022/05/26 02:31:45;;;;;;;;;;;;;;;18.26;64.05;101462.81;1051974;28;909;-64
2022/05/26 02:32:36;;;;;;;;;;;;;;;18.25;63.80;101466.50;1051677;28;1691;-64
2022/05/26 02:33:26;;;;;;;;;;;;;;;18.25;64.37;101458.41;1052000;28;645;-65
2022/05/26 02:34:17;;;;;;;;;;;;;;;18.26;64.02;101465.50;1051726;28;661;-65
2022/05/26 02:35:07;;;;;;;;;;;;;;;18.26;63.67;101470.91;1051912;28;622;-66
2022/05/26 02:35:58;;;;;;;;;;;;;;;18.26;64.19;101472.75;1052870;28;692;-65
2022/05/26 02:36:48;;;;;;;;;;;;;;;18.28;63.49;101459.94;1052996;28;657;-65
2022/05/26 02:37:39;;;;;;;;;;;;;;;18.26;63.84;101465.50;1051656;28;807;-65
2022/05/26 02:38:29;;;;;;;;;;;;;;;18.27;63.46;101469.06;1051876;28;646;-65
2022/05/26 02:39:20;;;;;;;;;;;;;;;18.27;64.47;101475.28;1051119;28;626;-65
2022/05/26 02:40:10;;;;;;;;;;;;;;;18.26;63.95;101475.44;1051794;28;685;-62
2022/05/26 02:41:01;;;;;;;;;;;;;;;18.26;63.45;101475.44;1052002;28;618;-65
2022/05/26 02:41:52;;;;;;;;;;;;;;;18.25;63.33;101471.91;1053072;28;653;-63
2022/05/26 02:42:42;;;;;;;;;;;;;;;18.25;63.88;101473.75;1052985;28;638;-63
2022/05/26 02:43:33;;;;;;;;;;;;;;;18.25;63.63;101476.44;1052739;28;1639;-64
2022/05/26 02:44:23;;;;;;;;;;;;;;;18.25;63.54;101471.91;1055643;28;1696;-63
2022/05/26 02:45:14;;;;;;;;;;;;;;;18.24;64.46;101477.41;1057537;28;1040;-64
2022/05/26 02:46:04;;;;;;;;;;;;;;;18.24;63.47;101475.56;1056003;28;638;-64
2022/05/26 02:46:55;;;;;;;;;;;;;;;18.24;64.05;101480.13;1056368;28;668;-63
2022/05/26 02:47:45;;;;;;;;;;;;;;;18.23;63.96;101471.16;1057166;28;637;-63
2022/05/26 02:48:36;;;;;;;;;;;;;;;18.24;63.97;101477.41;1057416;28;1079;-64
2022/05/26 02:49:26;;;;;;;;;;;;;;;18.24;63.81;101472.88;1061360;28;665;-63
2022/05/26 02:50:16;;;;;;;;;;;;;;;18.22;64.18;101466.75;1061546;28;727;-63
2022/05/26 02:51:07;;;;;;;;;;;;;;;18.23;63.82;101476.56;1052347;28;701;-64
2022/05/26 02:51:57;;;;;;;;;;;;;;;18.22;63.96;101480.25;1052140;28;703;-63
2022/05/26 02:52:48;;;;;;;;;;;;;;;18.22;64.00;101472.16;1053661;28;704;-64
2022/05/26 02:53:38;;;;;;;;;;;;;;;18.22;64.40;101485.66;1052135;28;689;-65
2022/05/26 02:54:28;;;;;;;;;;;;;;;18.22;64.24;101474.00;1052742;28;697;-65
2022/05/26 02:55:19;;;;;;;;;;;;;;;18.22;63.85;101474.00;1054347;28;645;-63
2022/05/26 02:56:09;;;;;;;;;;;;;;;18.22;63.83;101482.94;1053155;28;662;-64
2022/05/26 02:57:01;;;;;;;;;;;;;;;18.21;63.41;101478.53;1052499;28;693;-63
2022/05/26 02:57:52;;;;;;;;;;;;;;;18.21;63.53;101478.53;1052471;28;638;-64
2022/05/26 02:58:42;;;;;;;;;;;;;;;18.21;64.46;101478.53;1051813;28;662;-64
2022/05/26 02:59:32;;;;;;;;;;;;;;;18.20;63.84;101476.81;1054291;28;1678;-63
2022/05/26 03:00:23;;;;;;;;;;;;;;;18.20;64.27;101484.91;1055109;28;1627;-63
2022/05/26 03:01:13;;;;;;;;;;;;;;;18.20;64.27;101484.06;1057448;28;641;-63
2022/05/26 03:02:04;;;;;;;;;;;;;;;18.21;63.69;101485.78;1058689;28;663;-64
2022/05/26 03:02:54;;;;;;;;;;;;;;;18.20;63.96;101476.81;1053899;28;621;-64
2022/05/26 03:03:44;;;;;;;;;;;;;;;18.19;64.00;101477.81;1053977;28;713;-64
2022/05/26 03:04:35;;;;;;;;;;;;;;;18.19;63.98;101480.50;1058309;28;648;-65
2022/05/26 03:05:25;;;;;;;;;;;;;;;18.18;64.08;101484.19;1058582;28;649;-65
2022/05/26 03:06:16;;;;;;;;;;;;;;;18.17;63.60;101487.03;1053102;28;858;-64
2022/05/26 03:07:06;;;;;;;;;;;;;;;18.19;63.66;101485.91;1052654;28;661;-65
2022/05/26 03:07:57;;;;;;;;;;;;;;;18.19;64.05;101485.91;1053197;28;1889;-65
2022/05/26 03:08:47;;;;;;;;;;;;;;;18.18;64.08;101489.59;1053321;28;646;-64
2022/05/26 03:09:38;;;;;;;;;;;;;;;18.17;63.92;101493.28;1052939;28;692;-65
2022/05/26 03:10:28;;;;;;;;;;;;;;;18.17;63.57;101487.88;1055732;28;1509;-65
2022/05/26 03:11:19;;;;;;;;;;;;;;;18.18;63.95;101491.44;1056886;28;634;-64
2022/05/26 03:12:09;;;;;;;;;;;;;;;18.19;64.29;101495.84;1056597;28;626;-64
2022/05/26 03:12:59;;;;;;;;;;;;;;;18.19;63.74;101494.00;1056860;28;551;-64
2022/05/26 03:13:50;;;;;;;;;;;;;;;18.20;63.42;101486.75;1056584;28;681;-65
2022/05/26 03:14:40;;;;;;;;;;;;;;;18.19;64.40;101498.53;1056748;28;677;-65
2022/05/26 03:15:31;;;;;;;;;;;;;;;18.19;64.02;101491.31;1056184;28;1465;-65
2022/05/26 03:16:21;;;;;;;;;;;;;;;18.17;64.35;101498.66;1057931;28;661;-64
2022/05/26 03:17:11;;;;;;;;;;;;;;;18.17;64.18;101495.97;1056862;28;696;-65
2022/05/26 03:18:02;;;;;;;;;;;;;;;18.18;63.80;101494.13;1056440;28;1536;-64
2022/05/26 03:18:52;;;;;;;;;;;;;;;18.17;63.75;101493.28;1056675;28;712;-64
2022/05/26 03:19:43;;;;;;;;;;;;;;;18.16;63.97;101493.41;1056443;28;630;-64
2022/05/26 03:20:33;;;;;;;;;;;;;;;18.17;63.31;101495.97;1057218;28;1600;-63
2022/05/26 03:21:24;;;;;;;;;;;;;;;18.16;64.44;101496.09;1056948;28;713;-64
2022/05/26 03:22:14;;;;;;;;;;;;;;;18.15;63.49;101492.53;1056761;28;657;-64
2022/05/26 03:23:04;;;;;;;;;;;;;;;18.15;63.81;101494.38;1056310;28;610;-63
2022/05/26 03:23:55;;;;;;;;;;;;;;;18.16;63.82;101498.81;1056373;28;626;-63
2022/05/26 03:24:45;;;;;;;;;;;;;;;18.16;63.82;101498.81;1056581;28;806;-63
2022/05/26 03:25:36;;;;;;;;;;;;;;;18.14;63.35;101493.53;1058279;28;1587;-63
2022/05/26 03:26:26;;;;;;;;;;;;;;;18.14;64.57;101490.84;1056279;28;657;-63
2022/05/26 03:27:17;;;;;;;;;;;;;;;18.15;63.63;101497.94;1056552;28;884;-62
2022/05/26 03:28:07;;;;;;;;;;;;;;;18.14;63.97;101492.69;1056475;28;1956;-62
2022/05/26 03:28:58;;;;;;;;;;;;;;;18.15;64.43;101495.25;1056724;28;681;-62
2022/05/26 03:29:48;;;;;;;;;;;;;;;18.14;63.60;101498.94;1056390;28;1457;-63
2022/05/26 03:30:39;;;;;;;;;;;;;;;18.16;63.75;101496.09;1056583;28;1548;-63
2022/05/26 03:31:30;;;;;;;;;;;;;;;18.15;64.30;101505.19;1056348;28;1497;-62
2022/05/26 03:32:20;;;;;;;;;;;;;;;18.14;63.98;101501.63;1056084;28;701;-63
2022/05/26 03:33:11;;;;;;;;;;;;;;;18.13;64.14;101502.63;1056927;28;724;-63
2022/05/26 03:40:57;;;;;;;;;;;;;;;18.13;63.66;101502.63;1056672;28;1411;-64
2022/05/26 03:41:47;;;;;;;;;;;;;;;18.13;63.55;101513.41;1055912;28;678;-66
2022/05/26 03:42:37;;;;;;;;;;;;;;;18.13;63.66;101499.91;1056607;28;669;-63
2022/05/26 03:43:28;;;;;;;;;;;;;;;18.12;63.62;101511.69;1056535;28;685;-64
2022/05/26 03:44:18;;;;;;;;;;;;;;;18.12;64.19;101511.69;1053039;28;665;-64
2022/05/26 03:45:09;;;;;;;;;;;;;;;18.11;63.90;101499.19;1052941;28;1337;-64
2022/05/26 03:45:59;;;;;;;;;;;;;;;18.11;63.32;101503.72;1054093;28;686;-64
2022/05/26 03:46:49;;;;;;;;;;;;;;;18.12;63.99;101503.59;1052366;28;704;-64
2022/05/26 03:47:40;;;;;;;;;;;;;;;18.13;63.93;101508.00;1053780;28;1564;-64
2022/05/26 03:48:31;;;;;;;;;;;;;;;18.13;63.80;101507.16;1059013;27;1180;-64
2022/05/26 03:49:21;;;;;;;;;;;;;;;18.13;63.16;101501.75;1061421;27;661;-64
2022/05/26 03:50:12;;;;;;;;;;;;;;;18.13;64.12;101510.72;1060437;27;588;-64
2022/05/26 03:51:02;;;;;;;;;;;;;;;18.12;64.10;101506.28;1060071;27;644;-64
2022/05/26 03:51:52;;;;;;;;;;;;;;;18.12;63.64;101508.13;1059947;27;666;-64
2022/05/26 03:52:43;;;;;;;;;;;;;;;18.10;63.12;101510.97;1061874;27;633;-64
2022/05/26 03:53:34;;;;;;;;;;;;;;;18.11;63.15;101509.13;1056858;27;1547;-64
2022/05/26 03:54:24;;;;;;;;;;;;;;;18.11;63.83;101515.38;1055842;28;1505;-64
2022/05/26 03:55:14;;;;;;;;;;;;;;;18.10;64.10;101516.34;1053014;28;716;-64
2022/05/26 03:56:05;;;;;;;;;;;;;;;18.11;63.64;101515.38;1053435;28;624;-63
2022/05/26 03:56:55;;;;;;;;;;;;;;;18.09;63.41;101516.53;1052303;28;677;-64
2022/05/26 03:57:46;;;;;;;;;;;;;;;18.10;64.31;101515.50;1052451;28;669;-64
2022/05/26 03:58:36;;;;;;;;;;;;;;;18.09;63.75;101514.69;1058075;28;741;-65
2022/05/26 03:59:27;;;;;;;;;;;;;;;18.10;63.68;101527.16;1057700;27;1438;-65
2022/05/26 04:00:17;;;;;;;;;;;;;;;18.11;64.33;101520.78;1057034;28;1659;-65
2022/05/26 04:01:07;;;;;;;;;;;;;;;18.11;63.63;101522.59;1056649;28;673;-65
2022/05/26 04:01:58;;;;;;;;;;;;;;;18.10;63.59;101521.75;1056297;28;677;-65
2022/05/26 04:02:48;;;;;;;;;;;;;;;18.09;63.89;101528.16;1056396;28;634;-64
2022/05/26 04:03:39;;;;;;;;;;;;;;;18.09;63.60;101528.16;1055718;28;1370;-65
2022/05/26 04:04:29;;;;;;;;;;;;;;;18.11;63.91;101523.47;1058333;28;673;-65
2022/05/26 04:05:19;;;;;;;;;;;;;;;18.10;63.70;101524.44;1058436;28;640;-64
2022/05/26 04:06:10;;;;;;;;;;;;;;;18.09;63.95;101528.16;1057292;28;626;-65
2022/05/26 04:07:01;;;;;;;;;;;;;;;18.11;63.33;101528.00;1057639;28;617;-65
2022/05/26 04:07:51;;;;;;;;;;;;;;;18.09;64.16;101528.16;1058125;28;649;-64
2022/05/26 04:08:41;;;;;;;;;;;;;;;18.09;63.37;101530.88;1058332;28;630;-64
2022/05/26 04:09:32;;;;;;;;;;;;;;;18.09;63.39;101533.56;1057580;28;736;-64
2022/05/26 04:10:22;;;;;;;;;;;;;;;18.08;64.21;101531.84;1057480;28;1501;-64
2022/05/26 04:11:13;;;;;;;;;;;;;;;18.10;63.56;101534.38;1057679;28;606;-64
2022/05/26 04:12:05;;;;;;;;;;;;;;;18.09;63.06;101533.56;1058167;28;618;-65
2022/05/26 04:12:55;;;;;;;;;;;;;;;18.11;63.74;101536.09;1057591;28;684;-64
2022/05/26 04:13:46;;;;;;;;;;;;;;;18.09;63.71;101536.25;1058257;28;680;-64
2022/05/26 04:14:36;;;;;;;;;;;;;;;18.10;64.00;101535.25;1057714;28;645;-63
2022/05/26 04:15:27;;;;;;;;;;;;;;;18.09;64.03;101530.88;1058313;28;652;-64
2022/05/26 04:16:17;;;;;;;;;;;;;;;18.09;64.03;101538.09;1058247;28;708;-63
2022/05/26 04:17:07;;;;;;;;;;;;;;;18.09;63.26;101544.34;1058165;28;645;-63
2022/05/26 04:17:58;;;;;;;;;;;;;;;18.09;63.69;101538.09;1057488;28;680;-64
2022/05/26 04:18:48;;;;;;;;;;;;;;;18.08;63.38;101537.25;1057650;28;711;-64
2022/05/26 04:19:42;;;;;;;;;;;;;;;18.09;63.59;101548.88;1058252;28;645;-64
2022/05/26 04:20:32;;;;;;;;;;;;;;;18.08;63.21;101548.03;1057993;28;1489;-63
2022/05/26 04:21:23;;;;;;;;;;;;;;;18.08;63.67;101548.03;1056683;28;673;-64
2022/05/26 04:22:17;;;;;;;;;;;;;;;18.07;63.45;101542.78;1056270;28;692;-64
2022/05/26 04:23:08;;;;;;;;;;;;;;;18.06;64.20;101546.44;1056117;28;708;-64
2022/05/26 04:23:58;;;;;;;;;;;;;;;18.08;63.24;101556.13;1057583;28;614;-64
2022/05/26 04:24:48;;;;;;;;;;;;;;;18.06;63.13;101544.59;1056547;28;700;-64
2022/05/26 04:25:39;;;;;;;;;;;;;;;18.06;63.64;101555.41;1056149;28;1556;-64
2022/05/26 04:26:29;;;;;;;;;;;;;;;18.08;64.15;101556.13;1056352;28;557;-64
2022/05/26 04:27:20;;;;;;;;;;;;;;;18.08;63.13;101555.28;1056620;28;641;-62
2022/05/26 04:28:10;;;;;;;;;;;;;;;18.08;63.88;101557.97;1056178;28;1897;-63
2022/05/26 04:29:13;;;;;;;;;;;;;;;18.09;63.54;101559.69;1056608;28;680;-63
2022/05/26 04:30:04;;;;;;;;;;;;;;;18.07;63.22;101557.09;1052697;28;696;-63
2022/05/26 04:30:54;;;;;;;;;;;;;;;18.07;63.39;101557.09;1057247;28;625;-63
2022/05/26 04:31:45;;;;;;;;;;;;;;;18.06;63.92;101558.09;1056881;28;1520;-63
2022/05/26 04:32:35;;;;;;;;;;;;;;;18.08;63.06;101561.53;1052210;28;672;-63
2022/05/26 04:33:25;;;;;;;;;;;;;;;18.08;63.28;101563.38;1052914;28;648;-63
2022/05/26 04:34:16;;;;;;;;;;;;;;;18.09;63.62;101567.78;1052717;28;625;-63